createdAt,value
2018-04-24T00:01:23.250Z,7.70
2018-04-24T00:03:50.183Z,7.93
2018-04-24T00:06:18.129Z,10.80
2018-04-24T00:08:45.070Z,8.20
2018-04-24T00:11:11.955Z,6.47
2018-04-24T00:13:39.027Z,8.47
2018-04-24T00:16:05.966Z,6.90
2018-04-24T00:18:32.847Z,8.43
2018-04-24T00:20:59.921Z,6.73
2018-04-24T00:23:26.804Z,7.63
2018-04-24T00:25:53.714Z,7.73
2018-04-24T00:28:20.660Z,9.20
2018-04-24T00:30:47.554Z,6.70
2018-04-24T00:33:15.159Z,10.17
2018-04-24T00:35:42.093Z,10.77
2018-04-24T00:38:08.955Z,7.63
2018-04-24T00:40:35.841Z,8.80
2018-04-24T00:43:02.837Z,10.60
2018-04-24T00:45:29.765Z,9.80
2018-04-24T00:47:56.705Z,9.03
2018-04-24T00:50:24.447Z,9.67
2018-04-24T00:52:51.333Z,10.20
2018-04-24T00:55:18.267Z,10.50
2018-04-24T00:57:45.358Z,6.73
2018-04-24T01:00:12.247Z,13.47
2018-04-24T01:02:39.873Z,8.10
2018-04-24T01:05:07.011Z,9.03
2018-04-24T01:07:34.678Z,9.03
2018-04-24T01:10:01.568Z,7.63
2018-04-24T01:12:29.345Z,9.93
2018-04-24T01:14:56.985Z,7.90
2018-04-24T01:17:23.991Z,7.80
2018-04-24T01:19:51.826Z,8.17
2018-04-24T01:22:19.439Z,8.50
2018-04-24T01:24:46.378Z,9.80
2018-04-24T01:27:13.424Z,9.33
2018-04-24T01:29:40.287Z,8.47
2018-04-24T01:32:07.206Z,8.97
2018-04-24T01:34:34.228Z,8.20
2018-04-24T01:37:01.117Z,9.63
2018-04-24T01:39:27.995Z,6.00
2018-04-24T01:41:55.075Z,6.60
2018-04-24T01:44:22.037Z,8.33
2018-04-24T01:46:48.933Z,9.90
2018-04-24T01:49:15.944Z,9.53
2018-04-24T01:51:42.812Z,7.23
2018-04-24T01:54:09.759Z,8.50
2018-04-24T01:56:36.688Z,6.30
2018-04-24T01:59:03.584Z,6.93
2018-04-24T02:01:31.233Z,6.23
2018-04-24T02:03:58.291Z,7.17
2018-04-24T02:06:25.226Z,8.27
2018-04-24T02:08:52.200Z,7.07
2018-04-24T02:11:19.331Z,7.17
2018-04-24T02:13:46.941Z,8.90
2018-04-24T02:16:13.864Z,6.50
2018-04-24T02:18:40.932Z,6.83
2018-04-24T02:21:07.824Z,8.37
2018-04-24T02:23:34.703Z,9.57
2018-04-24T02:26:01.748Z,9.37
2018-04-24T02:28:28.629Z,5.90
2018-04-24T02:30:55.507Z,8.47
2018-04-24T02:33:22.633Z,7.57
2018-04-24T02:35:49.893Z,7.20
2018-04-24T02:38:16.867Z,7.77
2018-04-24T02:40:44.980Z,7.77
2018-04-24T02:43:11.869Z,11.23
2018-04-24T02:45:38.878Z,8.57
2018-04-24T02:48:05.952Z,9.33
2018-04-24T02:50:32.825Z,10.43
2018-04-24T02:52:59.737Z,11.10
2018-04-24T02:55:26.827Z,9.00
2018-04-24T02:57:53.701Z,8.37
2018-04-24T03:00:20.573Z,10.37
2018-04-24T03:02:47.518Z,8.67
2018-04-24T03:05:14.765Z,12.70
2018-04-24T03:07:41.641Z,8.53
2018-04-24T03:10:08.686Z,16.67
2018-04-24T03:12:35.608Z,9.67
2018-04-24T03:15:02.589Z,10.93
2018-04-24T03:17:29.703Z,13.13
2018-04-24T03:19:56.639Z,13.20
2018-04-24T03:22:23.788Z,17.83
2018-04-24T03:24:50.703Z,12.97
2018-04-24T03:27:18.324Z,13.20
2018-04-24T03:29:45.192Z,10.33
2018-04-24T03:32:12.250Z,11.60
2018-04-24T03:34:39.117Z,13.30
2018-04-24T03:37:06.771Z,14.20
2018-04-24T03:39:34.580Z,12.57
2018-04-24T03:42:01.449Z,12.67
2018-04-24T03:44:28.333Z,17.70
2018-04-24T03:46:56.054Z,11.77
2018-04-24T03:49:22.939Z,11.07
2018-04-24T03:51:50.562Z,13.07
2018-04-24T03:54:17.488Z,10.53
2018-04-24T03:56:44.417Z,12.87
2018-04-24T03:59:11.355Z,12.73
2018-04-24T04:01:38.368Z,9.57
2018-04-24T04:04:05.335Z,13.07
2018-04-24T04:06:32.256Z,14.20
2018-04-24T04:08:59.432Z,14.30
2018-04-24T04:11:27.111Z,16.00
2018-04-24T04:13:54.007Z,15.10
2018-04-24T04:16:21.045Z,18.60
2018-04-24T04:19:06.237Z,14.27
2018-04-24T04:21:51.660Z,16.07
2018-04-24T04:24:36.976Z,14.47
2018-04-24T04:27:04.084Z,12.67
2018-04-24T04:29:31.901Z,15.27
2018-04-24T04:31:58.821Z,12.53
2018-04-24T04:34:25.829Z,14.50
2018-04-24T04:36:53.497Z,13.77
2018-04-24T04:39:21.101Z,14.87
2018-04-24T04:41:48.168Z,15.23
2018-04-24T04:44:15.092Z,12.40
2018-04-24T04:46:42.032Z,14.70
2018-04-24T04:49:09.114Z,16.03
2018-04-24T04:51:36.004Z,14.67
2018-04-24T04:54:03.637Z,24.17
2018-04-24T04:56:30.726Z,13.97
2018-04-24T04:58:57.835Z,13.60
2018-04-24T05:01:24.761Z,12.70
2018-04-24T05:03:51.796Z,13.70
2018-04-24T05:06:18.680Z,14.67
2018-04-24T05:08:45.549Z,17.10
2018-04-24T05:11:13.405Z,15.07
2018-04-24T05:13:41.017Z,18.53
2018-04-24T05:16:07.901Z,17.00
2018-04-24T05:18:35.009Z,16.30
2018-04-24T05:21:01.906Z,15.03
2018-04-24T05:23:28.768Z,16.47
2018-04-24T05:25:56.521Z,13.10
2018-04-24T05:28:24.214Z,15.40
2018-04-24T05:30:51.109Z,13.27
2018-04-24T05:33:18.185Z,15.40
2018-04-24T05:35:45.835Z,14.90
2018-04-24T05:38:13.504Z,15.97
2018-04-24T05:40:41.264Z,13.57
2018-04-24T05:43:08.184Z,15.90
2018-04-24T05:45:35.069Z,12.33
2018-04-24T05:48:02.910Z,14.53
2018-04-24T05:50:29.913Z,15.00
2018-04-24T05:52:56.951Z,13.23
2018-04-24T05:55:24.796Z,17.77
2018-04-24T05:57:52.425Z,19.77
2018-04-24T06:00:19.384Z,16.93
2018-04-24T06:02:46.453Z,15.30
2018-04-24T06:05:14.071Z,16.33
2018-04-24T06:07:41.731Z,14.63
2018-04-24T06:10:08.884Z,17.10
2018-04-24T06:12:35.767Z,15.60
2018-04-24T06:15:02.796Z,13.93
2018-04-24T06:17:29.821Z,14.50
2018-04-24T06:19:56.686Z,16.00
2018-04-24T06:22:23.555Z,18.47
2018-04-24T06:24:50.574Z,15.53
2018-04-24T06:27:17.487Z,15.63
2018-04-24T06:29:44.374Z,14.83
2018-04-24T06:32:11.398Z,14.97
2018-04-24T06:34:38.252Z,16.00
2018-04-24T06:37:05.134Z,15.87
2018-04-24T06:39:32.790Z,12.33
2018-04-24T06:41:59.670Z,17.37
2018-04-24T06:44:26.597Z,16.30
2018-04-24T06:46:54.612Z,17.80
2018-04-24T06:49:21.481Z,17.73
2018-04-24T06:51:48.516Z,19.80
2018-04-24T06:54:15.431Z,15.03
2018-04-24T06:56:42.420Z,16.10
2018-04-24T06:59:09.355Z,12.60
2018-04-24T07:01:36.273Z,15.53
2018-04-24T07:04:03.156Z,13.73
2018-04-24T07:06:30.067Z,15.40
2018-04-24T07:08:57.212Z,15.57
2018-04-24T07:11:24.086Z,13.27
2018-04-24T07:13:51.030Z,17.13
2018-04-24T07:16:18.085Z,15.50
2018-04-24T07:18:44.982Z,17.00
2018-04-24T07:21:12.662Z,15.83
2018-04-24T07:23:39.788Z,14.93
2018-04-24T07:26:07.457Z,16.37
2018-04-24T07:28:35.162Z,14.00
2018-04-24T07:31:02.222Z,15.83
2018-04-24T07:33:29.168Z,17.03
2018-04-24T07:35:56.894Z,18.70
2018-04-24T07:38:24.933Z,13.10
2018-04-24T07:40:51.825Z,14.77
2018-04-24T07:43:18.759Z,16.13
2018-04-24T07:45:45.810Z,14.20
2018-04-24T07:48:12.686Z,13.53
2018-04-24T07:50:39.559Z,17.63
2018-04-24T07:53:06.578Z,14.70
2018-04-24T07:55:33.495Z,17.13
2018-04-24T07:58:00.385Z,13.80
2018-04-24T08:00:27.304Z,16.70
2018-04-24T08:02:54.186Z,15.17
2018-04-24T08:05:21.107Z,13.43
2018-04-24T08:07:48.956Z,13.80
2018-04-24T08:10:15.838Z,17.27
2018-04-24T08:12:42.727Z,12.00
2018-04-24T08:15:10.599Z,17.43
2018-04-24T08:17:37.488Z,12.13
2018-04-24T08:20:04.390Z,15.93
2018-04-24T08:22:38.460Z,12.50
2018-04-24T08:25:05.474Z,14.00
2018-04-24T08:27:32.453Z,15.83
2018-04-24T08:29:59.519Z,18.83
2018-04-24T08:32:26.463Z,14.63
2018-04-24T08:34:53.337Z,12.40
2018-04-24T08:37:20.253Z,12.60
2018-04-24T08:39:47.138Z,15.77
2018-04-24T08:42:14.000Z,15.50
2018-04-24T08:44:55.879Z,16.50
2018-04-24T08:47:22.765Z,19.17
2018-04-24T08:49:50.416Z,17.47
2018-04-24T08:52:17.618Z,13.40
2018-04-24T08:54:45.363Z,13.50
2018-04-24T08:57:12.228Z,16.07
2018-04-24T08:59:39.872Z,16.17
2018-04-24T09:02:06.788Z,15.33
2018-04-24T09:04:33.742Z,15.30
2018-04-24T09:07:00.708Z,17.40
2018-04-24T09:09:27.594Z,15.57
2018-04-24T09:11:54.460Z,18.07
2018-04-24T09:14:21.487Z,16.20
2018-04-24T09:16:48.355Z,17.70
2018-04-24T09:19:15.216Z,18.33
2018-04-24T09:21:42.223Z,16.70
2018-04-24T09:24:09.090Z,17.60
2018-04-24T09:26:35.967Z,20.77
2018-04-24T09:29:03.304Z,16.93
2018-04-24T09:31:36.253Z,16.23
2018-04-24T09:34:03.168Z,16.70
2018-04-24T09:36:30.129Z,19.57
2018-04-24T09:38:57.819Z,15.17
2018-04-24T09:41:24.797Z,22.47
2018-04-24T09:43:51.770Z,14.60
2018-04-24T09:46:18.654Z,15.27
2018-04-24T09:48:45.685Z,16.97
2018-04-24T09:51:12.625Z,18.57
2018-04-24T09:53:39.475Z,21.77
2018-04-24T09:56:07.437Z,20.47
2018-04-24T09:58:35.108Z,19.73
2018-04-24T10:01:02.772Z,20.27
2018-04-24T10:03:30.531Z,20.20
2018-04-24T10:05:58.140Z,23.77
2018-04-24T10:08:25.164Z,20.17
2018-04-24T10:10:52.327Z,21.60
2018-04-24T10:13:19.196Z,21.40
2018-04-24T10:15:46.081Z,22.17
2018-04-24T10:18:12.996Z,20.03
2018-04-24T10:20:39.867Z,20.30
2018-04-24T10:23:06.759Z,22.57
2018-04-24T10:25:33.693Z,19.37
2018-04-24T10:28:00.616Z,19.57
2018-04-24T10:30:27.583Z,23.23
2018-04-24T10:32:54.748Z,24.97
2018-04-24T10:35:21.693Z,20.77
2018-04-24T10:37:48.561Z,22.57
2018-04-24T10:40:15.721Z,18.57
2018-04-24T10:42:43.431Z,22.90
2018-04-24T10:45:11.036Z,22.97
2018-04-24T10:47:38.066Z,21.40
2018-04-24T10:50:05.036Z,20.63
2018-04-24T10:52:31.982Z,18.97
2018-04-24T10:54:59.132Z,20.87
2018-04-24T10:57:26.042Z,20.33
2018-04-24T10:59:52.966Z,19.83
2018-04-24T11:02:19.881Z,22.27
2018-04-24T11:04:46.813Z,27.40
2018-04-24T11:07:13.696Z,22.93
2018-04-24T11:09:40.836Z,21.93
2018-04-24T11:12:07.725Z,24.03
2018-04-24T11:14:34.606Z,22.57
2018-04-24T11:17:01.821Z,21.70
2018-04-24T11:19:28.759Z,29.60
2018-04-24T11:21:56.382Z,28.03
2018-04-24T11:24:23.366Z,28.73
2018-04-24T11:26:51.103Z,28.53
2018-04-24T11:29:17.974Z,24.97
2018-04-24T11:31:45.717Z,22.50
2018-04-24T11:34:12.643Z,24.37
2018-04-24T11:36:39.663Z,26.17
2018-04-24T11:39:06.628Z,20.87
2018-04-24T11:41:37.490Z,21.83
2018-04-24T11:44:04.362Z,21.10
2018-04-24T11:46:32.058Z,24.83
2018-04-24T11:48:58.999Z,21.23
2018-04-24T11:51:25.990Z,24.27
2018-04-24T11:53:53.024Z,24.13
2018-04-24T11:56:19.905Z,26.13
2018-04-24T11:58:47.579Z,27.30
2018-04-24T12:01:15.546Z,25.67
2018-04-24T12:03:43.220Z,28.13
2018-04-24T12:06:10.125Z,24.30
2018-04-24T12:08:37.446Z,29.90
2018-04-24T12:11:04.344Z,24.50
2018-04-24T12:13:31.231Z,23.63
2018-04-24T12:15:58.255Z,25.27
2018-04-24T12:18:25.863Z,22.57
2018-04-24T12:20:52.740Z,24.10
2018-04-24T12:23:19.999Z,27.97
2018-04-24T12:25:46.871Z,20.40
2018-04-24T12:28:13.811Z,21.67
2018-04-24T12:30:41.570Z,23.80
2018-04-24T12:33:09.232Z,28.80
2018-04-24T12:35:36.926Z,24.87
2018-04-24T12:38:03.976Z,28.87
2018-04-24T12:40:31.614Z,25.47
2018-04-24T12:42:58.535Z,24.63
2018-04-24T12:45:25.876Z,22.23
2018-04-24T12:47:52.773Z,26.97
2018-04-24T12:50:19.652Z,21.13
2018-04-24T12:52:47.534Z,21.77
2018-04-24T12:55:15.203Z,20.97
2018-04-24T12:57:42.136Z,22.00
2018-04-24T13:00:09.462Z,23.77
2018-04-24T13:02:36.383Z,22.50
2018-04-24T13:05:04.021Z,23.57
2018-04-24T13:07:31.049Z,25.10
2018-04-24T13:09:57.946Z,22.17
2018-04-24T13:12:24.824Z,22.97
2018-04-24T13:14:53.827Z,26.73
2018-04-24T13:17:20.764Z,26.97
2018-04-24T13:19:47.653Z,25.23
2018-04-24T13:22:14.973Z,28.90
2018-04-24T13:24:41.849Z,22.23
2018-04-24T13:27:08.732Z,29.10
2018-04-24T13:29:35.753Z,26.43
2018-04-24T13:32:02.634Z,24.07
2018-04-24T13:34:29.540Z,27.87
2018-04-24T13:36:56.504Z,28.23
2018-04-24T13:39:24.139Z,31.47
2018-04-24T13:41:51.034Z,27.47
2018-04-24T13:44:17.987Z,26.60
2018-04-24T13:46:44.864Z,30.63
2018-04-24T13:49:11.738Z,27.90
2018-04-24T13:51:38.929Z,27.83
2018-04-24T13:54:05.874Z,35.03
2018-04-24T13:56:32.743Z,25.93
2018-04-24T13:58:59.674Z,32.40
2018-04-24T14:01:26.598Z,29.53
2018-04-24T14:03:53.482Z,29.80
2018-04-24T14:06:20.606Z,28.37
2018-04-24T14:08:47.467Z,30.00
2018-04-24T14:11:14.341Z,29.03
2018-04-24T14:13:41.365Z,28.90
2018-04-24T14:16:08.241Z,26.87
2018-04-24T14:18:35.160Z,39.00
2018-04-24T14:21:02.137Z,34.13
2018-04-24T14:23:29.005Z,31.53
2018-04-24T14:25:55.897Z,26.73
2018-04-24T14:28:22.971Z,23.23
2018-04-24T14:30:49.836Z,24.70
2018-04-24T14:33:17.449Z,25.80
2018-04-24T14:35:44.631Z,25.83
2018-04-24T14:38:11.514Z,28.10
2018-04-24T14:40:38.382Z,26.00
2018-04-24T14:43:05.645Z,28.73
2018-04-24T14:45:32.575Z,25.83
2018-04-24T14:47:59.450Z,23.10
2018-04-24T14:50:26.460Z,21.23
2018-04-24T14:52:53.337Z,25.87
2018-04-24T14:55:20.240Z,26.83
2018-04-24T14:57:47.254Z,24.50
2018-04-24T15:00:14.127Z,24.27
2018-04-24T15:02:41.744Z,27.73
2018-04-24T15:05:08.668Z,27.53
2018-04-24T15:07:35.535Z,24.17
2018-04-24T15:10:02.510Z,27.57
2018-04-24T15:12:30.352Z,32.63
2018-04-24T15:14:57.245Z,30.80
2018-04-24T15:17:24.162Z,32.83
2018-04-24T15:19:51.301Z,24.50
2018-04-24T15:22:18.269Z,24.03
2018-04-24T15:24:45.907Z,23.90
2018-04-24T15:27:12.954Z,25.27
2018-04-24T15:29:39.828Z,26.03
2018-04-24T15:32:07.473Z,23.00
2018-04-24T15:34:34.564Z,24.57
2018-04-24T15:37:01.516Z,31.77
2018-04-24T15:39:28.389Z,28.20
2018-04-24T15:41:55.577Z,26.53
2018-04-24T15:44:22.626Z,29.57
2018-04-24T15:46:50.309Z,28.17
2018-04-24T15:49:17.226Z,28.57
2018-04-24T15:51:44.158Z,30.47
2018-04-24T15:54:11.097Z,25.97
2018-04-24T15:56:38.222Z,26.47
2018-04-24T15:59:05.114Z,31.23
2018-04-24T16:01:32.005Z,24.83
2018-04-24T16:03:59.084Z,28.10
2018-04-24T16:06:26.022Z,21.93
2018-04-24T16:08:53.704Z,26.53
2018-04-24T16:11:20.781Z,23.10
2018-04-24T16:13:47.702Z,28.20
2018-04-24T16:16:14.592Z,26.37
2018-04-24T16:18:42.347Z,25.70
2018-04-24T16:21:10.009Z,23.00
2018-04-24T16:23:37.654Z,23.97
2018-04-24T16:26:04.668Z,23.63
2018-04-24T16:28:31.592Z,28.13
2018-04-24T16:30:58.524Z,26.87
2018-04-24T16:33:25.452Z,25.43
2018-04-24T16:35:53.127Z,27.03
2018-04-24T16:38:20.049Z,23.17
2018-04-24T16:40:47.173Z,29.20
2018-04-24T16:43:14.071Z,29.43
2018-04-24T16:45:41.732Z,25.17
2018-04-24T16:48:09.506Z,26.57
2018-04-24T16:50:36.408Z,29.90
2018-04-24T16:53:03.331Z,29.67
2018-04-24T16:55:30.406Z,29.60
2018-04-24T16:57:57.356Z,27.33
2018-04-24T17:00:24.257Z,30.27
2018-04-24T17:02:51.307Z,26.83
2018-04-24T17:05:18.178Z,29.47
2018-04-24T17:07:45.059Z,27.60
2018-04-24T17:10:12.209Z,28.23
2018-04-24T17:12:39.865Z,31.07
2018-04-24T17:15:07.056Z,32.43
2018-04-24T17:17:34.124Z,33.07
2018-04-24T17:20:01.124Z,29.43
2018-04-24T17:22:27.962Z,31.93
2018-04-24T17:24:55.730Z,32.30
2018-04-24T17:27:23.400Z,34.40
2018-04-24T17:29:51.106Z,36.50
2018-04-24T17:32:18.034Z,33.20
2018-04-24T17:34:44.897Z,30.97
2018-04-24T17:37:11.781Z,39.83
2018-04-24T17:39:38.864Z,35.87
2018-04-24T17:42:06.474Z,40.57
2018-04-24T17:44:33.354Z,42.60
2018-04-24T17:47:01.217Z,42.67
2018-04-24T17:49:28.880Z,39.70
2018-04-24T17:51:56.508Z,43.23
2018-04-24T17:54:23.570Z,42.20
2018-04-24T17:56:51.440Z,36.33
2018-04-24T17:59:18.357Z,39.87
2018-04-24T18:01:45.426Z,35.27
2018-04-24T18:04:12.303Z,34.60
2018-04-24T18:06:39.950Z,36.93
2018-04-24T18:09:07.082Z,36.53
2018-04-24T18:11:34.091Z,34.87
2018-04-24T18:14:00.968Z,33.37
2018-04-24T18:16:28.154Z,32.17
2018-04-24T18:18:55.838Z,35.07
2018-04-24T18:21:23.528Z,30.63
2018-04-24T18:23:50.644Z,27.03
2018-04-24T18:26:17.537Z,32.63
2018-04-24T18:28:44.439Z,25.50
2018-04-24T18:31:12.214Z,26.60
2018-04-24T18:33:39.884Z,37.33
2018-04-24T18:36:07.555Z,28.83
2018-04-24T18:38:34.623Z,29.43
2018-04-24T18:41:01.510Z,25.75
2018-04-24T18:43:28.399Z,26.47
2018-04-24T18:45:55.680Z,29.23
2018-04-24T18:48:23.501Z,29.83
2018-04-24T18:50:51.159Z,29.77
2018-04-24T18:53:18.274Z,26.93
2018-04-24T18:55:45.174Z,26.73
2018-04-24T18:58:12.124Z,30.33
2018-04-24T19:00:39.216Z,30.60
2018-04-24T19:03:06.095Z,29.70
2018-04-24T19:05:32.978Z,30.30
2018-04-24T19:08:00.206Z,26.53
2018-04-24T19:10:27.095Z,28.23
2018-04-24T19:12:53.969Z,22.50
2018-04-24T19:15:21.032Z,25.43
2018-04-24T19:17:48.001Z,22.97
2018-04-24T19:20:14.953Z,24.77
2018-04-24T19:22:41.989Z,22.57
2018-04-24T19:25:15.048Z,21.27
2018-04-24T19:27:41.964Z,21.93
2018-04-24T19:30:08.880Z,23.17
2018-04-24T19:32:35.765Z,13.83
2018-04-24T19:35:02.910Z,17.30
2018-04-24T19:37:29.845Z,18.90
2018-04-24T19:40:02.661Z,18.53
2018-04-24T19:42:29.568Z,18.27
2018-04-24T19:44:56.432Z,17.67
2018-04-24T19:47:23.320Z,18.73
2018-04-24T19:49:57.144Z,13.23
2018-04-24T19:52:24.084Z,13.77
2018-04-24T19:54:57.813Z,15.23
2018-04-24T19:57:24.728Z,20.93
2018-04-24T19:59:52.389Z,15.37
2018-04-24T20:02:19.495Z,13.87
2018-04-24T20:04:46.367Z,18.00
2018-04-24T20:07:13.335Z,9.90
2018-04-24T20:09:40.525Z,14.87
2018-04-24T20:12:07.444Z,12.60
2018-04-24T20:14:34.367Z,14.50
2018-04-24T20:17:01.717Z,15.53
2018-04-24T20:19:28.668Z,15.47
2018-04-24T20:21:55.605Z,14.20
2018-04-24T20:24:22.644Z,13.77
2018-04-24T20:26:49.512Z,21.43
2018-04-24T20:29:17.128Z,12.17
2018-04-24T20:31:44.057Z,21.93
2018-04-24T20:34:10.922Z,15.13
2018-04-24T20:36:37.865Z,16.53
2018-04-24T20:39:05.833Z,15.27
2018-04-24T20:41:32.708Z,16.17
2018-04-24T20:43:59.568Z,18.87
2018-04-24T20:46:27.426Z,13.50
2018-04-24T20:48:54.302Z,11.83
2018-04-24T20:51:21.236Z,15.23
2018-04-24T20:53:49.092Z,15.50
2018-04-24T20:56:15.967Z,14.93
2018-04-24T20:58:42.846Z,13.23
2018-04-24T21:01:09.781Z,20.50
2018-04-24T21:03:36.651Z,13.37
2018-04-24T21:06:03.665Z,20.60
2018-04-24T21:08:30.587Z,14.73
2018-04-24T21:10:57.470Z,16.87
2018-04-24T21:13:24.407Z,16.50
2018-04-24T21:15:51.339Z,18.67
2018-04-24T21:18:18.214Z,21.33
2018-04-24T21:20:45.090Z,16.87
2018-04-24T21:23:12.215Z,18.67
2018-04-24T21:25:39.108Z,24.07
2018-04-24T21:28:06.052Z,18.83
2018-04-24T21:30:33.824Z,21.57
2018-04-24T21:33:01.479Z,22.13
2018-04-24T21:35:29.121Z,24.63
2018-04-24T21:37:56.253Z,25.23
2018-04-24T21:40:23.222Z,22.73
2018-04-24T21:42:50.108Z,26.70
2018-04-24T21:45:17.146Z,26.63
2018-04-24T21:47:44.076Z,21.67
2018-04-24T21:50:11.702Z,22.90
2018-04-24T21:52:38.783Z,22.10
2018-04-24T21:55:05.657Z,22.43
2018-04-24T21:57:32.553Z,26.33
2018-04-24T21:59:59.687Z,19.60
2018-04-24T22:02:26.576Z,21.67
2018-04-24T22:04:54.253Z,26.53
2018-04-24T22:07:21.380Z,24.17
2018-04-24T22:09:48.346Z,26.37
2018-04-24T22:12:15.962Z,25.50
2018-04-24T22:14:54.886Z,25.07
2018-04-24T22:17:21.774Z,23.27
2018-04-24T22:19:49.405Z,17.37
2018-04-24T22:22:16.412Z,20.13
2018-04-24T22:24:43.340Z,23.67
2018-04-24T22:27:10.943Z,21.17
2018-04-24T22:29:37.882Z,23.63
2018-04-24T22:32:04.759Z,17.93
2018-04-24T22:34:31.624Z,20.30
2018-04-24T22:36:59.395Z,21.50
2018-04-24T22:39:27.069Z,19.60
2018-04-24T22:41:53.932Z,24.27
2018-04-24T22:44:21.672Z,21.53
2018-04-24T22:46:49.279Z,19.33
2018-04-24T22:49:16.877Z,23.53
2018-04-24T22:51:43.936Z,21.43
2018-04-24T22:54:11.549Z,23.67
2018-04-24T22:56:38.416Z,19.23
2018-04-24T22:59:05.533Z,23.63
2018-04-24T23:01:32.419Z,27.93
2018-04-24T23:03:59.305Z,25.70
2018-04-24T23:06:26.329Z,25.93
2018-04-24T23:08:54.000Z,27.77
2018-04-24T23:11:40.260Z,31.40
2018-04-24T23:14:25.295Z,33.23
2018-04-24T23:17:10.446Z,28.57
2018-04-24T23:19:56.344Z,30.73
2018-04-24T23:22:29.813Z,40.03
2018-04-24T23:24:56.727Z,41.97
2018-04-24T23:27:23.684Z,45.80
2018-04-24T23:29:50.757Z,48.47
2018-04-24T23:32:17.687Z,43.20
2018-04-24T23:34:44.647Z,49.77
2018-04-24T23:37:15.981Z,53.53
2018-04-24T23:39:42.955Z,55.17
2018-04-24T23:42:09.857Z,56.80
2018-04-24T23:44:36.960Z,57.07
2018-04-24T23:47:04.632Z,55.00
2018-04-24T23:49:32.375Z,57.07
2018-04-24T23:51:59.514Z,53.23
2018-04-24T23:54:26.459Z,51.30
2018-04-24T23:56:53.410Z,55.27
2018-04-24T23:59:20.587Z,49.57
